createdAt,value
2022-11-29T00:01:53.510Z,100889.16
2022-11-29T00:04:20.844Z,100911.69
2022-11-29T00:06:48.144Z,100903.84
2022-11-29T00:09:15.448Z,100908.22
2022-11-29T00:12:01.769Z,100924.84
2022-11-29T00:14:29.531Z,100933.59
2022-11-29T00:17:05.891Z,100925.88
2022-11-29T00:19:35.698Z,100902.44
2022-11-29T00:22:04.259Z,100912.97
2022-11-29T00:24:32.635Z,100920.88
2022-11-29T00:27:00.113Z,100867.22
2022-11-29T00:32:12.448Z,100912.88
2022-11-29T00:34:39.891Z,100902.25
2022-11-29T00:37:09.244Z,100896.81
2022-11-29T00:39:36.890Z,100907.41
2022-11-29T00:42:04.308Z,100897.69
2022-11-29T00:44:31.624Z,100882.88
2022-11-29T00:46:59.193Z,100882.91
2022-11-29T00:49:26.581Z,100912.34
2022-11-29T00:51:53.866Z,100904.38
2022-11-29T00:54:21.316Z,100918.59
2022-11-29T00:56:48.641Z,100904.56
2022-11-29T00:59:16.056Z,100896.59
2022-11-29T01:01:43.471Z,100912.44
2022-11-29T01:04:10.863Z,100887.31
2022-11-29T01:06:38.364Z,100922.91
2022-11-29T01:09:05.942Z,100885.56
2022-11-29T01:11:33.839Z,100866.47
2022-11-29T01:14:02.437Z,100878.56
2022-11-29T01:16:31.291Z,100914.28
2022-11-29T01:18:58.697Z,100881.41
2022-11-29T01:21:29.617Z,100917.16
2022-11-29T01:23:57.346Z,100887.44
2022-11-29T01:26:27.187Z,100921.28
2022-11-29T01:28:57.097Z,100914.47
2022-11-29T01:31:26.503Z,100915.63
2022-11-29T01:33:54.978Z,100906.13
2022-11-29T01:36:23.086Z,100842.72
2022-11-29T01:38:50.543Z,100878.38
2022-11-29T01:41:26.321Z,100867.78
2022-11-29T01:44:11.817Z,100887.91
2022-11-29T01:46:41.796Z,100898.41
2022-11-29T01:49:11.817Z,100860.31
2022-11-29T01:51:40.415Z,100891.75
2022-11-29T01:54:10.036Z,100845.84
2022-11-29T01:56:38.686Z,100880.28
2022-11-29T01:59:11.267Z,100891.91
2022-11-29T02:01:39.098Z,100852.34
2022-11-29T02:04:07.400Z,100893.34
2022-11-29T02:06:37.159Z,100916.47
2022-11-29T02:09:07.827Z,100887.72
2022-11-29T02:11:50.256Z,100893.84
2022-11-29T02:14:33.883Z,100891.06
2022-11-29T02:17:13.656Z,100878.81
2022-11-29T02:20:08.692Z,100877.56
2022-11-29T02:22:53.292Z,100859.78
2022-11-29T02:25:57.584Z,100885.72
2022-11-29T02:29:02.445Z,100883.72
2022-11-29T02:31:32.636Z,100879.44
2022-11-29T02:34:19.176Z,100874.94
2022-11-29T02:36:51.581Z,100878.53
2022-11-29T02:39:37.753Z,100887.16
2022-11-29T02:42:56.421Z,100885.22
2022-11-29T02:45:43.119Z,100873.94
2022-11-29T02:48:29.266Z,100881.16
2022-11-29T02:51:15.474Z,100869.16
2022-11-29T02:54:02.757Z,100860.34
2022-11-29T02:56:48.890Z,100874.94
2022-11-29T02:59:39.209Z,100884.16
2022-11-29T03:02:15.607Z,100890.09
2022-11-29T03:05:04.738Z,100887.63
2022-11-29T03:07:58.546Z,100888.59
2022-11-29T03:10:55.736Z,100858.03
2022-11-29T03:13:38.451Z,100842.28
2022-11-29T03:16:39.733Z,100887.50
2022-11-29T03:19:33.264Z,100887.72
2022-11-29T03:22:39.439Z,100882.53
2022-11-29T03:25:22.629Z,100884.84
2022-11-29T03:28:16.684Z,100838.84
2022-11-29T03:31:10.117Z,100885.84
2022-11-29T03:33:56.133Z,100886.91
2022-11-29T03:36:44.749Z,100883.56
2022-11-29T03:39:18.637Z,100884.28
2022-11-29T03:41:52.247Z,100883.66
2022-11-29T03:44:21.709Z,100850.06
2022-11-29T03:46:59.493Z,100884.88
2022-11-29T03:49:42.773Z,100883.94
2022-11-29T03:52:32.824Z,100884.91
2022-11-29T03:55:19.432Z,100861.38
2022-11-29T03:58:09.874Z,100867.84
2022-11-29T04:00:49.425Z,100881.63
2022-11-29T04:03:35.502Z,100883.34
2022-11-29T04:06:27.575Z,100829.78
2022-11-29T04:09:18.548Z,100881.69
2022-11-29T04:11:54.990Z,100885.22
2022-11-29T04:14:43.047Z,100881.22
2022-11-29T04:17:10.567Z,100880.53
2022-11-29T04:19:59.428Z,100885.69
2022-11-29T04:22:41.610Z,100893.81
2022-11-29T04:25:32.633Z,100842.81
2022-11-29T04:27:59.966Z,100890.66
2022-11-29T04:30:36.849Z,100862.22
2022-11-29T04:33:25.278Z,100896.03
2022-11-29T04:36:29.253Z,100891.59
2022-11-29T04:38:59.603Z,100900.41
2022-11-29T04:41:32.975Z,100890.78
2022-11-29T04:44:21.910Z,100898.81
2022-11-29T04:47:14.183Z,100894.50
2022-11-29T04:50:18.135Z,100863.97
2022-11-29T04:52:54.533Z,100900.31
2022-11-29T04:55:39.999Z,100902.31
2022-11-29T04:58:34.779Z,100909.16
2022-11-29T05:01:23.790Z,100914.31
2022-11-29T05:04:09.627Z,100895.00
2022-11-29T05:06:49.052Z,100927.28
2022-11-29T05:09:31.943Z,100922.19
2022-11-29T05:12:27.228Z,100903.97
2022-11-29T05:15:32.106Z,100922.16
2022-11-29T05:18:14.767Z,100922.13
2022-11-29T05:21:05.780Z,100928.44
2022-11-29T05:24:08.449Z,100929.69
2022-11-29T05:26:49.336Z,100925.94
2022-11-29T05:29:31.416Z,100927.78
2022-11-29T05:32:28.700Z,100937.38
2022-11-29T05:35:25.029Z,100947.09
2022-11-29T05:38:00.494Z,100884.41
2022-11-29T05:40:44.474Z,100944.22
2022-11-29T05:43:14.813Z,100952.09
2022-11-29T05:46:26.352Z,100951.88
2022-11-29T05:49:15.394Z,100952.16
2022-11-29T05:51:53.758Z,100956.16
2022-11-29T05:54:33.845Z,100951.09
2022-11-29T05:57:13.919Z,100949.47
2022-11-29T05:59:43.772Z,100918.91
2022-11-29T06:02:26.060Z,100947.56
2022-11-29T06:05:24.490Z,100955.38
2022-11-29T06:08:13.254Z,100959.84
2022-11-29T06:11:12.777Z,100924.06
2022-11-29T06:14:09.003Z,100952.72
2022-11-29T06:17:01.877Z,100936.56
2022-11-29T06:19:34.622Z,100943.69
2022-11-29T06:22:20.991Z,100959.31
2022-11-29T06:25:07.021Z,100965.56
2022-11-29T06:27:42.951Z,100972.06
2022-11-29T06:30:26.637Z,100952.66
2022-11-29T06:33:01.372Z,100969.47
2022-11-29T06:35:51.540Z,100972.53
2022-11-29T06:38:21.721Z,100975.47
2022-11-29T06:40:51.173Z,100971.66
2022-11-29T06:43:18.826Z,100970.69
2022-11-29T06:46:00.619Z,100957.81
2022-11-29T06:48:34.610Z,100958.84
2022-11-29T06:51:07.993Z,100980.66
2022-11-29T06:53:49.354Z,100953.59
2022-11-29T06:56:35.323Z,100986.53
2022-11-29T06:59:17.310Z,100956.03
2022-11-29T07:01:54.772Z,100973.59
2022-11-29T07:04:46.779Z,100983.25
2022-11-29T07:07:19.742Z,100963.78
2022-11-29T07:09:50.953Z,100960.81
2022-11-29T07:12:19.119Z,100945.38
2022-11-29T07:14:47.009Z,100970.84
2022-11-29T07:17:43.594Z,100980.84
2022-11-29T07:20:55.194Z,100949.53
2022-11-29T07:23:28.607Z,100975.63
2022-11-29T07:25:58.978Z,100979.94
2022-11-29T07:28:40.881Z,100960.66
2022-11-29T07:31:17.806Z,100911.94
2022-11-29T07:34:07.196Z,100986.19
2022-11-29T07:36:44.547Z,100970.94
2022-11-29T07:39:37.602Z,100969.88
2022-11-29T07:42:11.077Z,100963.66
2022-11-29T07:45:00.011Z,100981.28
2022-11-29T07:47:31.261Z,100963.91
2022-11-29T07:50:01.619Z,100970.75
2022-11-29T07:52:28.937Z,100959.44
2022-11-29T07:54:56.785Z,100989.13
2022-11-29T07:57:24.076Z,100978.00
2022-11-29T07:59:51.654Z,100991.72
2022-11-29T08:02:31.891Z,100980.25
2022-11-29T08:04:59.342Z,100982.91
2022-11-29T08:07:26.731Z,100968.38
2022-11-29T08:09:54.122Z,100985.75
2022-11-29T08:12:21.529Z,100999.09
2022-11-29T08:14:48.866Z,100971.97
2022-11-29T08:17:18.464Z,100943.69
2022-11-29T08:19:45.792Z,100900.91
2022-11-29T08:22:13.693Z,100949.22
2022-11-29T08:24:41.113Z,100950.63
2022-11-29T08:27:08.473Z,100995.38
2022-11-29T08:29:35.941Z,100990.59
2022-11-29T08:32:03.525Z,100975.69
2022-11-29T08:34:30.944Z,100976.00
2022-11-29T08:36:58.285Z,100975.31
2022-11-29T08:39:25.700Z,100974.47
2022-11-29T08:41:53.058Z,100959.78
2022-11-29T08:44:20.402Z,100967.38
2022-11-29T08:47:06.159Z,100977.00
2022-11-29T08:49:33.488Z,100982.34
2022-11-29T08:52:19.672Z,100950.16
2022-11-29T08:54:47.418Z,100990.19
2022-11-29T08:57:39.144Z,100946.97
2022-11-29T09:00:02.795Z,100961.63
2022-11-29T09:02:30.213Z,100971.38
2022-11-29T09:04:57.582Z,100972.78
2022-11-29T09:07:25.056Z,100984.88
2022-11-29T09:09:52.379Z,100982.31
2022-11-29T09:12:19.828Z,100982.97
2022-11-29T09:14:47.390Z,100947.69
2022-11-29T09:17:14.869Z,100924.03
2022-11-29T09:19:42.213Z,100968.91
2022-11-29T09:22:09.609Z,100962.34
2022-11-29T09:24:36.942Z,100989.16
2022-11-29T09:27:04.569Z,100965.94
2022-11-29T09:29:32.484Z,100986.06
2022-11-29T09:31:59.838Z,100960.97
2022-11-29T09:34:27.204Z,100951.41
2022-11-29T09:36:54.617Z,100968.09
2022-11-29T09:39:22.099Z,100988.66
2022-11-29T09:42:06.080Z,100959.13
2022-11-29T09:45:18.578Z,100981.94
2022-11-29T09:47:58.021Z,100990.72
2022-11-29T09:50:37.245Z,100988.25
2022-11-29T09:53:22.790Z,100985.00
2022-11-29T09:56:18.126Z,100974.00
2022-11-29T09:58:56.848Z,100978.75
2022-11-29T10:01:29.356Z,100960.53
2022-11-29T10:04:02.759Z,100969.13
2022-11-29T10:06:38.804Z,100945.91
2022-11-29T10:09:33.743Z,100958.72
2022-11-29T10:12:15.290Z,100959.84
2022-11-29T10:15:05.996Z,100960.88
2022-11-29T10:17:38.897Z,100960.88
2022-11-29T10:20:18.997Z,100936.44
2022-11-29T10:22:56.049Z,100909.78
2022-11-29T10:25:28.462Z,100930.50
2022-11-29T10:27:55.903Z,100902.03
2022-11-29T10:30:23.355Z,100944.63
2022-11-29T10:33:00.509Z,100944.63
2022-11-29T10:35:29.455Z,100914.25
2022-11-29T10:40:54.498Z,100942.78
2022-11-29T10:43:22.058Z,100932.50
2022-11-29T10:45:55.965Z,100950.88
2022-11-29T10:48:31.741Z,100933.38
2022-11-29T10:51:01.090Z,100938.78
2022-11-29T10:53:35.772Z,100945.03
2022-11-29T10:56:19.948Z,100950.91
2022-11-29T10:59:03.387Z,100946.41
2022-11-29T11:01:33.807Z,100944.75
2022-11-29T11:04:04.299Z,100925.84
2022-11-29T11:06:51.575Z,100920.56
2022-11-29T11:09:32.307Z,100896.22
2022-11-29T11:12:02.970Z,100883.09
2022-11-29T11:14:37.628Z,100908.44
2022-11-29T11:17:36.534Z,100944.00
2022-11-29T11:20:19.038Z,100947.41
2022-11-29T11:22:58.723Z,100939.69
2022-11-29T11:25:30.613Z,100936.06
2022-11-29T11:28:13.711Z,100940.44
2022-11-29T11:30:52.837Z,100913.50
2022-11-29T11:33:30.357Z,100941.25
2022-11-29T11:36:11.908Z,100931.06
2022-11-29T11:38:49.009Z,100920.66
2022-11-29T11:41:16.680Z,100930.00
2022-11-29T11:43:59.068Z,100911.75
2022-11-29T11:46:50.294Z,100942.94
2022-11-29T11:49:35.842Z,100933.25
2022-11-29T11:52:06.160Z,100928.09
2022-11-29T11:54:33.660Z,100926.31
2022-11-29T11:57:01.083Z,100927.50
2022-11-29T11:59:28.648Z,100924.16
2022-11-29T12:01:56.018Z,100905.09
2022-11-29T12:04:37.139Z,100938.16
2022-11-29T12:07:17.267Z,100868.81
2022-11-29T12:10:00.445Z,100891.38
2022-11-29T12:12:32.213Z,100901.66
2022-11-29T12:15:16.361Z,100920.69
2022-11-29T12:17:52.221Z,100902.34
2022-11-29T12:20:25.059Z,100867.53
2022-11-29T12:23:13.975Z,100923.13
2022-11-29T12:25:47.572Z,100925.72
2022-11-29T12:28:20.571Z,100931.69
2022-11-29T12:31:16.615Z,100928.31
2022-11-29T12:33:54.714Z,100918.75
2022-11-29T12:36:42.111Z,100884.09
2022-11-29T12:39:23.776Z,100890.28
2022-11-29T12:42:18.582Z,100915.31
2022-11-29T12:44:53.716Z,100902.97
2022-11-29T12:47:37.141Z,100922.13
2022-11-29T12:50:07.413Z,100918.72
2022-11-29T12:52:44.681Z,100922.13
2022-11-29T12:55:33.629Z,100920.38
2022-11-29T12:58:18.280Z,100902.31
2022-11-29T13:01:24.638Z,100923.00
2022-11-29T13:04:22.809Z,100907.72
2022-11-29T13:07:02.567Z,100873.81
2022-11-29T13:09:32.864Z,100897.22
2022-11-29T13:12:12.956Z,100900.78
2022-11-29T13:14:48.379Z,100898.06
2022-11-29T13:17:35.244Z,100872.81
2022-11-29T13:20:22.383Z,100868.44
2022-11-29T13:22:59.655Z,100909.22
2022-11-29T13:25:41.724Z,100908.34
2022-11-29T13:28:22.894Z,100908.19
2022-11-29T13:30:51.006Z,100891.84
2022-11-29T13:34:08.247Z,100908.41
2022-11-29T13:36:50.787Z,100917.25
2022-11-29T13:39:28.349Z,100918.84
2022-11-29T13:42:05.348Z,100918.81
2022-11-29T13:44:49.299Z,100917.72
2022-11-29T13:47:18.393Z,100913.31
2022-11-29T13:49:59.977Z,100929.84
2022-11-29T13:52:48.097Z,100926.44
2022-11-29T13:55:28.973Z,100906.38
2022-11-29T13:58:30.980Z,100904.63
2022-11-29T14:01:09.581Z,100921.81
2022-11-29T14:03:43.114Z,100933.97
2022-11-29T14:06:36.052Z,100932.16
2022-11-29T14:09:26.900Z,100927.88
2022-11-29T14:12:17.025Z,100888.84
2022-11-29T14:15:06.095Z,100950.44
2022-11-29T14:17:55.310Z,100941.00
2022-11-29T14:20:22.550Z,100946.09
2022-11-29T14:23:05.334Z,100945.81
2022-11-29T14:25:52.782Z,100940.69
2022-11-29T14:28:23.225Z,100944.78
2022-11-29T14:30:53.436Z,100947.47
2022-11-29T14:33:28.960Z,100941.38
2022-11-29T14:36:09.022Z,100942.25
2022-11-29T14:38:48.450Z,100936.19
2022-11-29T14:42:08.198Z,100937.13
2022-11-29T14:44:48.563Z,100923.19
2022-11-29T14:47:26.890Z,100939.59
2022-11-29T14:49:57.379Z,100934.44
2022-11-29T14:52:29.727Z,100905.81
2022-11-29T14:55:04.327Z,100928.41
2022-11-29T14:57:50.110Z,100937.09
2022-11-29T15:00:21.183Z,100931.88
2022-11-29T15:02:53.148Z,100938.16
2022-11-29T15:05:31.232Z,100926.75
2022-11-29T15:08:23.083Z,100937.25
2022-11-29T15:11:12.190Z,100938.78
2022-11-29T15:13:51.153Z,100928.34
2022-11-29T15:16:48.155Z,100950.16
2022-11-29T15:19:40.281Z,100946.59
2022-11-29T15:22:57.359Z,100931.00
2022-11-29T15:25:28.343Z,100936.28
2022-11-29T15:27:58.253Z,100955.31
2022-11-29T15:30:28.657Z,100956.00
2022-11-29T15:32:57.076Z,100957.69
2022-11-29T15:35:24.945Z,100930.06
2022-11-29T15:37:53.819Z,100930.00
2022-11-29T15:40:31.431Z,100950.00
2022-11-29T15:43:22.379Z,100953.56
2022-11-29T15:45:51.703Z,100934.34
2022-11-29T15:48:38.625Z,100956.28
2022-11-29T15:51:28.348Z,100955.41
2022-11-29T15:54:19.915Z,100950.97
2022-11-29T15:57:02.448Z,100935.22
2022-11-29T15:59:38.822Z,100962.22
2022-11-29T16:02:21.602Z,100961.28
2022-11-29T16:04:52.039Z,100968.13
2022-11-29T16:07:22.538Z,100949.31
2022-11-29T16:09:57.559Z,100967.41
2022-11-29T16:12:25.274Z,100951.06
2022-11-29T16:14:53.913Z,100962.25
2022-11-29T16:17:24.794Z,100931.91
2022-11-29T16:19:52.100Z,100944.06
2022-11-29T16:22:24.371Z,100955.25
2022-11-29T16:24:53.802Z,100972.72
2022-11-29T16:27:23.058Z,100951.03
2022-11-29T16:29:55.041Z,100944.28
2022-11-29T16:32:32.678Z,100958.84
2022-11-29T16:35:15.355Z,100971.00
2022-11-29T16:37:44.634Z,100966.66
2022-11-29T16:40:22.749Z,100960.44
2022-11-29T16:43:20.034Z,100970.13
2022-11-29T16:45:47.464Z,100970.94
2022-11-29T16:48:29.894Z,100952.75
2022-11-29T16:51:16.086Z,100970.00
2022-11-29T16:53:48.108Z,100955.16
2022-11-29T16:56:18.434Z,100966.66
2022-11-29T16:59:25.463Z,100973.44
2022-11-29T17:01:39.814Z,100970.97
2022-11-29T17:04:09.067Z,100976.09
2022-11-29T17:06:37.081Z,100934.34
2022-11-29T17:09:05.811Z,100964.09
2022-11-29T17:11:33.154Z,100953.50
2022-11-29T17:14:00.475Z,100930.06
2022-11-29T17:16:27.941Z,100919.63
2022-11-29T17:18:55.357Z,100949.84
2022-11-29T17:21:25.963Z,100956.03
2022-11-29T17:23:53.929Z,100954.19
2022-11-29T17:26:21.976Z,100955.16
2022-11-29T17:28:51.534Z,100959.56
2022-11-29T17:31:21.454Z,100958.59
2022-11-29T17:33:48.808Z,100964.00
2022-11-29T17:36:19.579Z,100912.59
2022-11-29T17:38:47.448Z,100931.53
2022-11-29T17:41:25.239Z,100949.03
2022-11-29T17:43:54.152Z,100960.25
2022-11-29T17:46:32.549Z,100957.63
2022-11-29T17:49:02.545Z,100955.03
2022-11-29T17:54:17.532Z,100948.03
2022-11-29T17:56:44.832Z,100958.56
2022-11-29T17:59:12.186Z,100963.72
2022-11-29T18:01:39.580Z,100927.25
2022-11-29T18:04:08.399Z,100947.31
2022-11-29T18:06:38.188Z,100951.66
2022-11-29T18:09:07.698Z,100950.88
2022-11-29T18:11:45.277Z,100926.38
2022-11-29T18:14:20.649Z,100949.94
2022-11-29T18:16:48.498Z,100956.84
2022-11-29T18:19:18.766Z,100938.72
2022-11-29T18:21:46.198Z,100957.09
2022-11-29T18:24:13.904Z,100945.59
2022-11-29T18:26:41.905Z,100949.09
2022-11-29T18:29:10.119Z,100917.72
2022-11-29T18:31:40.298Z,100963.72
2022-11-29T18:34:09.819Z,100962.94
2022-11-29T18:36:38.673Z,100956.91
2022-11-29T18:39:11.605Z,100963.81
2022-11-29T18:41:41.908Z,100962.94
2022-11-29T18:44:12.070Z,100965.44
2022-11-29T18:46:41.191Z,100938.44
2022-11-29T18:49:09.966Z,100967.94
2022-11-29T18:51:41.180Z,100967.97
2022-11-29T18:54:08.727Z,100951.41
2022-11-29T18:56:37.008Z,100954.88
2022-11-29T18:59:10.861Z,100960.09
2022-11-29T19:01:43.167Z,100954.03
2022-11-29T19:04:16.676Z,100970.63
2022-11-29T19:06:44.262Z,100954.06
2022-11-29T19:09:14.665Z,100935.84
2022-11-29T19:11:42.002Z,100947.97
2022-11-29T19:14:11.807Z,100979.31
2022-11-29T19:16:40.820Z,100977.47
2022-11-29T19:19:08.200Z,100961.84
2022-11-29T19:21:35.930Z,100978.41
2022-11-29T19:24:06.833Z,100952.34
2022-11-29T19:26:34.702Z,100963.72
2022-11-29T19:29:02.013Z,100949.59
2022-11-29T19:31:29.930Z,100985.44
2022-11-29T19:33:57.526Z,100975.88
2022-11-29T19:36:30.283Z,100955.00
2022-11-29T19:39:00.507Z,100964.50
2022-11-29T19:41:32.291Z,100978.38
2022-11-29T19:44:02.430Z,100953.19
2022-11-29T19:46:35.661Z,100977.53
2022-11-29T19:49:05.254Z,100965.31
2022-11-29T19:51:33.714Z,100965.44
2022-11-29T19:54:03.705Z,100954.09
2022-11-29T19:56:32.283Z,100978.41
2022-11-29T19:58:59.992Z,100953.19
2022-11-29T20:01:40.269Z,100969.63
2022-11-29T20:04:09.576Z,100944.41
2022-11-29T20:06:37.089Z,100959.25
2022-11-29T20:09:04.844Z,100955.78
2022-11-29T20:11:32.388Z,100962.91
2022-11-29T20:14:01.625Z,100955.03
2022-11-29T20:16:30.057Z,100968.09
2022-11-29T20:18:58.473Z,100947.22
2022-11-29T20:21:28.992Z,100962.03
2022-11-29T20:23:58.269Z,100912.50
2022-11-29T20:26:26.709Z,100962.91
2022-11-29T20:28:54.234Z,100948.16
2022-11-29T20:31:23.173Z,100959.41
2022-11-29T20:33:52.824Z,100941.19
2022-11-29T20:36:41.863Z,100955.97
2022-11-29T20:39:43.197Z,100951.59
2022-11-29T20:42:35.173Z,100948.22
2022-11-29T20:45:06.460Z,100947.56
2022-11-29T20:47:41.459Z,100919.72
2022-11-29T20:50:14.650Z,100946.81
2022-11-29T20:53:03.334Z,100945.88
2022-11-29T20:55:30.721Z,100917.16
2022-11-29T20:57:58.108Z,100911.94
2022-11-29T21:00:25.701Z,100933.59
2022-11-29T21:02:53.094Z,100917.38
2022-11-29T21:05:20.456Z,100921.72
2022-11-29T21:07:47.874Z,100928.69
2022-11-29T21:10:15.577Z,100925.25
2022-11-29T21:12:45.684Z,100921.53
2022-11-29T21:15:14.912Z,100945.84
2022-11-29T21:17:43.188Z,100941.66
2022-11-29T21:20:19.231Z,100927.66
2022-11-29T21:23:08.860Z,100949.28
2022-11-29T21:25:45.259Z,100939.78
2022-11-29T21:28:14.886Z,100919.72
2022-11-29T21:30:42.740Z,100895.47
2022-11-29T21:33:11.380Z,100947.63
2022-11-29T21:35:40.118Z,100931.94
2022-11-29T21:38:13.770Z,100940.72
2022-11-29T21:40:42.147Z,100919.69
2022-11-29T21:43:09.447Z,100900.63
2022-11-29T21:45:36.859Z,100929.28
2022-11-29T21:48:24.317Z,100925.94
2022-11-29T21:50:51.755Z,100908.94
2022-11-29T21:53:19.199Z,100916.50
2022-11-29T21:55:46.517Z,100921.81
2022-11-29T21:58:13.861Z,100899.28
2022-11-29T22:00:43.032Z,100919.97
2022-11-29T22:03:10.390Z,100920.19
2022-11-29T22:05:37.930Z,100925.19
2022-11-29T22:08:05.489Z,100892.16
2022-11-29T22:10:32.813Z,100898.25
2022-11-29T22:13:00.217Z,100910.38
2022-11-29T22:15:27.908Z,100891.25
2022-11-29T22:17:56.263Z,100906.91
2022-11-29T22:20:23.635Z,100874.78
2022-11-29T22:22:55.715Z,100928.59
2022-11-29T22:25:26.950Z,100884.31
2022-11-29T22:27:54.242Z,100912.16
2022-11-29T22:30:21.634Z,100875.72
2022-11-29T22:32:48.944Z,100891.31
2022-11-29T22:35:16.277Z,100909.59
2022-11-29T22:37:43.622Z,100906.94
2022-11-29T22:40:11.258Z,100901.91
2022-11-29T22:42:38.644Z,100899.25
2022-11-29T22:45:06.432Z,100885.34
2022-11-29T22:47:33.702Z,100863.63
2022-11-29T22:50:02.861Z,100919.34
2022-11-29T22:52:30.180Z,100914.06
2022-11-29T22:55:04.732Z,100896.69
2022-11-29T22:57:32.467Z,100876.66
2022-11-29T22:59:59.888Z,100884.56
2022-11-29T23:02:28.153Z,100876.75
2022-11-29T23:04:55.510Z,100879.31
2022-11-29T23:07:22.893Z,100891.47
2022-11-29T23:09:50.290Z,100906.34
2022-11-29T23:12:18.748Z,100883.69
2022-11-29T23:14:48.276Z,100887.22
2022-11-29T23:17:18.910Z,100879.41
2022-11-29T23:19:46.209Z,100854.31
2022-11-29T23:22:13.551Z,100887.28
2022-11-29T23:24:42.411Z,100868.19
2022-11-29T23:27:09.814Z,100838.66
2022-11-29T23:29:37.226Z,100849.97
2022-11-29T23:32:04.764Z,100818.72
2022-11-29T23:34:32.221Z,100878.63
2022-11-29T23:36:59.509Z,100859.56
2022-11-29T23:39:26.801Z,100850.94
2022-11-29T23:41:54.160Z,100871.78
2022-11-29T23:44:21.405Z,100872.66
2022-11-29T23:46:48.762Z,100866.72
2022-11-29T23:49:16.069Z,100892.69
2022-11-29T23:51:43.493Z,100861.44
2022-11-29T23:54:10.796Z,100865.84
2022-11-29T23:56:38.134Z,100885.84
2022-11-29T23:59:05.759Z,100880.63
